sensor_id;sensor_type;location;lat;lon;timestamp;temperature;humidity
5901;DHT22;2976;49.764;9.796;2022-09-23T00:00:37;5.30;99.90
5901;DHT22;2976;49.764;9.796;2022-09-23T00:03:03;5.40;99.90
5901;DHT22;2976;49.764;9.796;2022-09-23T00:05:29;5.30;99.90
5901;DHT22;2976;49.764;9.796;2022-09-23T00:07:56;5.30;99.90
5901;DHT22;2976;49.764;9.796;2022-09-23T00:10:23;5.20;99.90
5901;DHT22;2976;49.764;9.796;2022-09-23T00:12:49;5.10;99.90
5901;DHT22;2976;49.764;9.796;2022-09-23T00:15:15;5.00;99.90
5901;DHT22;2976;49.764;9.796;2022-09-23T00:17:41;5.00;99.90
5901;DHT22;2976;49.764;9.796;2022-09-23T00:20:07;5.00;99.90
5901;DHT22;2976;49.764;9.796;2022-09-23T00:22:37;5.00;99.90
5901;DHT22;2976;49.764;9.796;2022-09-23T00:25:04;5.10;99.90
5901;DHT22;2976;49.764;9.796;2022-09-23T00:27:30;5.10;99.90
5901;DHT22;2976;49.764;9.796;2022-09-23T00:29:58;5.00;99.90
5901;DHT22;2976;49.764;9.796;2022-09-23T00:32:24;5.00;99.90
5901;DHT22;2976;49.764;9.796;2022-09-23T00:34:50;4.90;99.90
5901;DHT22;2976;49.764;9.796;2022-09-23T00:37:16;4.80;99.90
5901;DHT22;2976;49.764;9.796;2022-09-23T00:39:41;4.70;99.90
5901;DHT22;2976;49.764;9.796;2022-09-23T00:42:13;4.60;99.90
5901;DHT22;2976;49.764;9.796;2022-09-23T00:44:47;4.60;99.90
5901;DHT22;2976;49.764;9.796;2022-09-23T00:52:46;4.60;99.90
5901;DHT22;2976;49.764;9.796;2022-09-23T00:55:17;4.70;99.90
5901;DHT22;2976;49.764;9.796;2022-09-23T00:57:44;4.70;99.90
5901;DHT22;2976;49.764;9.796;2022-09-23T01:00:11;4.60;99.90
5901;DHT22;2976;49.764;9.796;2022-09-23T01:02:37;4.60;99.90
5901;DHT22;2976;49.764;9.796;2022-09-23T01:05:05;4.60;99.90
5901;DHT22;2976;49.764;9.796;2022-09-23T01:07:31;4.60;99.90
5901;DHT22;2976;49.764;9.796;2022-09-23T01:09:58;4.60;99.90
5901;DHT22;2976;49.764;9.796;2022-09-23T01:12:48;4.70;99.90
5901;DHT22;2976;49.764;9.796;2022-09-23T01:15:25;4.70;99.90
5901;DHT22;2976;49.764;9.796;2022-09-23T01:18:09;4.60;99.90
5901;DHT22;2976;49.764;9.796;2022-09-23T01:23:58;4.50;99.90
5901;DHT22;2976;49.764;9.796;2022-09-23T01:26:47;4.40;99.90
5901;DHT22;2976;49.764;9.796;2022-09-23T01:29:47;4.30;99.90
5901;DHT22;2976;49.764;9.796;2022-09-23T01:34:57;4.10;99.90
5901;DHT22;2976;49.764;9.796;2022-09-23T01:37:36;4.10;99.90
5901;DHT22;2976;49.764;9.796;2022-09-23T01:42:43;4.00;99.90
5901;DHT22;2976;49.764;9.796;2022-09-23T01:51:11;4.00;99.90
5901;DHT22;2976;49.764;9.796;2022-09-23T01:53:48;4.10;99.90
5901;DHT22;2976;49.764;9.796;2022-09-23T01:56:51;4.00;99.90
5901;DHT22;2976;49.764;9.796;2022-09-23T01:59:21;4.00;99.90
5901;DHT22;2976;49.764;9.796;2022-09-23T02:01:55;4.00;99.90
5901;DHT22;2976;49.764;9.796;2022-09-23T02:04:48;4.00;99.90
5901;DHT22;2976;49.764;9.796;2022-09-23T02:12:34;4.00;99.90
5901;DHT22;2976;49.764;9.796;2022-09-23T02:15:06;4.00;99.90
5901;DHT22;2976;49.764;9.796;2022-09-23T02:17:45;4.00;99.90
5901;DHT22;2976;49.764;9.796;2022-09-23T02:20:13;4.00;99.90
5901;DHT22;2976;49.764;9.796;2022-09-23T02:22:52;4.00;99.90
5901;DHT22;2976;49.764;9.796;2022-09-23T02:25:24;3.90;99.90
5901;DHT22;2976;49.764;9.796;2022-09-23T02:28:06;3.90;99.90
5901;DHT22;2976;49.764;9.796;2022-09-23T02:30:39;3.80;99.90
5901;DHT22;2976;49.764;9.796;2022-09-23T02:33:34;3.70;99.90
5901;DHT22;2976;49.764;9.796;2022-09-23T02:36:07;3.70;99.90
5901;DHT22;2976;49.764;9.796;2022-09-23T02:38:42;3.70;99.90
5901;DHT22;2976;49.764;9.796;2022-09-23T02:43:44;3.70;99.90
5901;DHT22;2976;49.764;9.796;2022-09-23T02:46:12;3.70;99.90
5901;DHT22;2976;49.764;9.796;2022-09-23T02:48:52;3.70;99.90
5901;DHT22;2976;49.764;9.796;2022-09-23T02:51:21;3.70;99.90
5901;DHT22;2976;49.764;9.796;2022-09-23T02:53:50;3.70;99.90
5901;DHT22;2976;49.764;9.796;2022-09-23T02:56:18;3.70;99.90
5901;DHT22;2976;49.764;9.796;2022-09-23T02:58:48;3.80;99.90
5901;DHT22;2976;49.764;9.796;2022-09-23T03:06:59;3.70;99.90
5901;DHT22;2976;49.764;9.796;2022-09-23T03:09:40;3.70;99.90
5901;DHT22;2976;49.764;9.796;2022-09-23T03:12:39;3.70;99.90
5901;DHT22;2976;49.764;9.796;2022-09-23T03:15:32;3.60;99.90
5901;DHT22;2976;49.764;9.796;2022-09-23T03:18:15;3.60;99.90
5901;DHT22;2976;49.764;9.796;2022-09-23T03:20:55;3.50;99.90
5901;DHT22;2976;49.764;9.796;2022-09-23T03:23:26;3.50;99.90
5901;DHT22;2976;49.764;9.796;2022-09-23T03:25:54;3.40;99.90
5901;DHT22;2976;49.764;9.796;2022-09-23T03:28:23;3.40;99.90
5901;DHT22;2976;49.764;9.796;2022-09-23T03:30:50;3.30;99.90
5901;DHT22;2976;49.764;9.796;2022-09-23T03:33:21;3.30;99.90
5901;DHT22;2976;49.764;9.796;2022-09-23T03:35:59;3.30;99.90
5901;DHT22;2976;49.764;9.796;2022-09-23T03:38:47;3.30;99.90
5901;DHT22;2976;49.764;9.796;2022-09-23T03:41:18;3.20;99.90
5901;DHT22;2976;49.764;9.796;2022-09-23T03:43:48;3.20;99.90
5901;DHT22;2976;49.764;9.796;2022-09-23T03:46:13;3.20;99.90
5901;DHT22;2976;49.764;9.796;2022-09-23T03:48:42;3.10;99.90
5901;DHT22;2976;49.764;9.796;2022-09-23T03:51:27;3.10;99.90
5901;DHT22;2976;49.764;9.796;2022-09-23T03:53:53;3.20;99.90
5901;DHT22;2976;49.764;9.796;2022-09-23T03:56:18;3.30;99.90
5901;DHT22;2976;49.764;9.796;2022-09-23T03:58:44;3.30;99.90
5901;DHT22;2976;49.764;9.796;2022-09-23T04:01:11;3.20;99.90
5901;DHT22;2976;49.764;9.796;2022-09-23T04:03:37;3.10;99.90
5901;DHT22;2976;49.764;9.796;2022-09-23T04:06:02;3.10;99.90
5901;DHT22;2976;49.764;9.796;2022-09-23T04:08:28;3.00;99.90
5901;DHT22;2976;49.764;9.796;2022-09-23T04:10:59;3.00;99.90
5901;DHT22;2976;49.764;9.796;2022-09-23T04:13:26;3.00;99.90
5901;DHT22;2976;49.764;9.796;2022-09-23T04:15:51;3.00;99.90
5901;DHT22;2976;49.764;9.796;2022-09-23T04:18:17;3.00;99.90
5901;DHT22;2976;49.764;9.796;2022-09-23T04:20:43;3.00;99.90
5901;DHT22;2976;49.764;9.796;2022-09-23T04:23:08;2.90;99.90
5901;DHT22;2976;49.764;9.796;2022-09-23T04:25:34;2.90;99.90
5901;DHT22;2976;49.764;9.796;2022-09-23T04:27:59;2.90;99.90
5901;DHT22;2976;49.764;9.796;2022-09-23T04:30:25;3.00;99.90
5901;DHT22;2976;49.764;9.796;2022-09-23T04:32:51;2.90;99.90
5901;DHT22;2976;49.764;9.796;2022-09-23T04:35:17;2.90;99.90
5901;DHT22;2976;49.764;9.796;2022-09-23T04:37:42;2.90;99.90
5901;DHT22;2976;49.764;9.796;2022-09-23T04:40:08;2.90;99.90
5901;DHT22;2976;49.764;9.796;2022-09-23T04:42:34;2.90;99.90
5901;DHT22;2976;49.764;9.796;2022-09-23T04:44:59;2.90;99.90
5901;DHT22;2976;49.764;9.796;2022-09-23T04:47:25;2.90;99.90
5901;DHT22;2976;49.764;9.796;2022-09-23T04:49:50;2.80;99.90
5901;DHT22;2976;49.764;9.796;2022-09-23T04:52:17;2.80;99.90
5901;DHT22;2976;49.764;9.796;2022-09-23T04:54:42;2.70;99.90
5901;DHT22;2976;49.764;9.796;2022-09-23T04:57:08;2.70;99.90
5901;DHT22;2976;49.764;9.796;2022-09-23T04:59:35;2.60;99.90
5901;DHT22;2976;49.764;9.796;2022-09-23T05:02:01;2.60;99.90
5901;DHT22;2976;49.764;9.796;2022-09-23T05:04:27;2.70;99.90
5901;DHT22;2976;49.764;9.796;2022-09-23T05:06:52;2.70;99.90
5901;DHT22;2976;49.764;9.796;2022-09-23T05:09:18;2.70;99.90
5901;DHT22;2976;49.764;9.796;2022-09-23T05:11:43;2.70;99.90
5901;DHT22;2976;49.764;9.796;2022-09-23T05:14:09;2.70;99.90
5901;DHT22;2976;49.764;9.796;2022-09-23T05:16:35;2.70;99.90
5901;DHT22;2976;49.764;9.796;2022-09-23T05:19:01;2.80;99.90
5901;DHT22;2976;49.764;9.796;2022-09-23T05:21:27;2.90;99.90
5901;DHT22;2976;49.764;9.796;2022-09-23T05:23:54;2.90;99.90
5901;DHT22;2976;49.764;9.796;2022-09-23T05:26:22;3.00;99.90
5901;DHT22;2976;49.764;9.796;2022-09-23T05:28:49;3.00;99.90
5901;DHT22;2976;49.764;9.796;2022-09-23T05:31:17;3.10;99.90
5901;DHT22;2976;49.764;9.796;2022-09-23T05:33:48;3.20;99.90
5901;DHT22;2976;49.764;9.796;2022-09-23T05:36:14;3.30;99.90
5901;DHT22;2976;49.764;9.796;2022-09-23T05:38:42;3.40;99.90
5901;DHT22;2976;49.764;9.796;2022-09-23T05:41:10;3.50;99.90
5901;DHT22;2976;49.764;9.796;2022-09-23T05:43:36;3.50;99.90
5901;DHT22;2976;49.764;9.796;2022-09-23T05:46:08;3.50;99.90
5901;DHT22;2976;49.764;9.796;2022-09-23T05:48:35;3.60;99.90
5901;DHT22;2976;49.764;9.796;2022-09-23T05:51:01;3.70;99.90
5901;DHT22;2976;49.764;9.796;2022-09-23T05:53:27;3.70;99.90
5901;DHT22;2976;49.764;9.796;2022-09-23T05:55:54;3.80;99.90
5901;DHT22;2976;49.764;9.796;2022-09-23T05:58:20;3.90;99.90
5901;DHT22;2976;49.764;9.796;2022-09-23T06:00:46;4.00;99.90
5901;DHT22;2976;49.764;9.796;2022-09-23T06:03:14;4.10;99.90
5901;DHT22;2976;49.764;9.796;2022-09-23T06:05:40;4.30;99.90
5901;DHT22;2976;49.764;9.796;2022-09-23T06:08:07;4.40;99.90
5901;DHT22;2976;49.764;9.796;2022-09-23T06:10:41;4.70;99.90
5901;DHT22;2976;49.764;9.796;2022-09-23T06:13:08;5.30;99.90
5901;DHT22;2976;49.764;9.796;2022-09-23T06:15:34;5.80;99.90
5901;DHT22;2976;49.764;9.796;2022-09-23T06:18:00;6.40;99.90
5901;DHT22;2976;49.764;9.796;2022-09-23T06:20:26;6.70;99.90
5901;DHT22;2976;49.764;9.796;2022-09-23T06:22:52;7.10;99.90
5901;DHT22;2976;49.764;9.796;2022-09-23T06:25:18;7.50;99.90
5901;DHT22;2976;49.764;9.796;2022-09-23T06:27:50;7.30;99.90
5901;DHT22;2976;49.764;9.796;2022-09-23T06:30:19;7.10;99.90
5901;DHT22;2976;49.764;9.796;2022-09-23T06:32:48;7.00;99.90
5901;DHT22;2976;49.764;9.796;2022-09-23T06:35:14;7.00;99.90
5901;DHT22;2976;49.764;9.796;2022-09-23T06:37:40;7.00;99.90
5901;DHT22;2976;49.764;9.796;2022-09-23T06:40:06;7.00;99.90
5901;DHT22;2976;49.764;9.796;2022-09-23T06:42:31;7.10;99.90
5901;DHT22;2976;49.764;9.796;2022-09-23T06:44:57;7.10;99.90
5901;DHT22;2976;49.764;9.796;2022-09-23T06:47:24;7.20;99.90
5901;DHT22;2976;49.764;9.796;2022-09-23T06:49:49;7.50;99.90
5901;DHT22;2976;49.764;9.796;2022-09-23T06:52:15;8.00;99.90
5901;DHT22;2976;49.764;9.796;2022-09-23T06:54:41;8.40;99.90
5901;DHT22;2976;49.764;9.796;2022-09-23T06:57:07;8.50;99.90
5901;DHT22;2976;49.764;9.796;2022-09-23T06:59:34;8.40;99.90
5901;DHT22;2976;49.764;9.796;2022-09-23T07:01:59;8.40;99.90
5901;DHT22;2976;49.764;9.796;2022-09-23T07:04:25;8.50;99.90
5901;DHT22;2976;49.764;9.796;2022-09-23T07:06:52;8.70;99.90
5901;DHT22;2976;49.764;9.796;2022-09-23T07:09:19;8.90;99.90
5901;DHT22;2976;49.764;9.796;2022-09-23T07:11:46;9.30;99.90
5901;DHT22;2976;49.764;9.796;2022-09-23T07:14:11;9.40;99.90
5901;DHT22;2976;49.764;9.796;2022-09-23T07:16:38;9.90;99.90
5901;DHT22;2976;49.764;9.796;2022-09-23T07:19:03;10.50;99.90
5901;DHT22;2976;49.764;9.796;2022-09-23T07:21:29;11.00;91.80
5901;DHT22;2976;49.764;9.796;2022-09-23T07:23:55;11.20;87.30
5901;DHT22;2976;49.764;9.796;2022-09-23T07:26:23;11.40;92.10
5901;DHT22;2976;49.764;9.796;2022-09-23T07:28:53;11.80;85.60
5901;DHT22;2976;49.764;9.796;2022-09-23T07:31:19;12.40;67.20
5901;DHT22;2976;49.764;9.796;2022-09-23T07:33:45;12.80;33.70
5901;DHT22;2976;49.764;9.796;2022-09-23T07:36:17;13.10;4.90
5901;DHT22;2976;49.764;9.796;2022-09-23T07:38:44;13.50;31.00
5901;DHT22;2976;49.764;9.796;2022-09-23T07:41:12;14.10;25.60
5901;DHT22;2976;49.764;9.796;2022-09-23T07:43:38;14.20;1.00
5901;DHT22;2976;49.764;9.796;2022-09-23T07:46:08;14.30;1.00
5901;DHT22;2976;49.764;9.796;2022-09-23T07:48:34;14.80;1.00
5901;DHT22;2976;49.764;9.796;2022-09-23T07:51:31;15.00;1.00
5901;DHT22;2976;49.764;9.796;2022-09-23T07:53:57;15.10;1.00
5901;DHT22;2976;49.764;9.796;2022-09-23T07:56:25;15.10;1.00
5901;DHT22;2976;49.764;9.796;2022-09-23T07:58:51;14.90;1.00
5901;DHT22;2976;49.764;9.796;2022-09-23T08:01:30;14.80;1.00
5901;DHT22;2976;49.764;9.796;2022-09-23T08:03:58;15.00;1.00
5901;DHT22;2976;49.764;9.796;2022-09-23T08:06:24;15.10;1.00
5901;DHT22;2976;49.764;9.796;2022-09-23T08:08:50;15.40;1.00
5901;DHT22;2976;49.764;9.796;2022-09-23T08:11:16;15.70;1.00
5901;DHT22;2976;49.764;9.796;2022-09-23T08:13:42;15.90;1.00
5901;DHT22;2976;49.764;9.796;2022-09-23T08:16:08;15.80;1.00
5901;DHT22;2976;49.764;9.796;2022-09-23T08:18:34;16.00;1.00
5901;DHT22;2976;49.764;9.796;2022-09-23T08:21:00;15.60;99.90
5901;DHT22;2976;49.764;9.796;2022-09-23T08:23:25;15.20;1.00
5901;DHT22;2976;49.764;9.796;2022-09-23T08:26:03;15.30;1.00
5901;DHT22;2976;49.764;9.796;2022-09-23T08:28:29;15.00;1.00
5901;DHT22;2976;49.764;9.796;2022-09-23T08:30:55;14.40;99.90
5901;DHT22;2976;49.764;9.796;2022-09-23T08:33:21;14.20;99.90
5901;DHT22;2976;49.764;9.796;2022-09-23T08:35:46;14.00;99.90
5901;DHT22;2976;49.764;9.796;2022-09-23T08:38:12;14.20;99.90
5901;DHT22;2976;49.764;9.796;2022-09-23T08:40:42;14.40;99.90
5901;DHT22;2976;49.764;9.796;2022-09-23T08:43:29;14.60;99.90
5901;DHT22;2976;49.764;9.796;2022-09-23T08:45:59;14.70;21.40
5901;DHT22;2976;49.764;9.796;2022-09-23T08:48:28;14.90;1.00
5901;DHT22;2976;49.764;9.796;2022-09-23T08:51:00;15.10;1.00
5901;DHT22;2976;49.764;9.796;2022-09-23T08:53:28;15.00;99.90
5901;DHT22;2976;49.764;9.796;2022-09-23T08:55:58;14.80;1.00
5901;DHT22;2976;49.764;9.796;2022-09-23T09:01:35;14.80;1.00
5901;DHT22;2976;49.764;9.796;2022-09-23T09:04:55;15.10;1.00
5901;DHT22;2976;49.764;9.796;2022-09-23T09:07:26;15.60;1.00
5901;DHT22;2976;49.764;9.796;2022-09-23T09:09:59;16.00;1.00
5901;DHT22;2976;49.764;9.796;2022-09-23T09:12:58;16.10;22.20
5901;DHT22;2976;49.764;9.796;2022-09-23T09:15:27;16.50;99.90
5901;DHT22;2976;49.764;9.796;2022-09-23T09:18:09;17.00;1.00
5901;DHT22;2976;49.764;9.796;2022-09-23T09:20:58;16.90;99.90
5901;DHT22;2976;49.764;9.796;2022-09-23T09:26:25;16.90;99.90
5901;DHT22;2976;49.764;9.796;2022-09-23T09:29:08;17.00;99.90
5901;DHT22;2976;49.764;9.796;2022-09-23T09:31:46;17.30;99.90
5901;DHT22;2976;49.764;9.796;2022-09-23T09:37:05;17.60;91.00
5901;DHT22;2976;49.764;9.796;2022-09-23T09:39:33;17.90;99.90
5901;DHT22;2976;49.764;9.796;2022-09-23T09:41:59;17.80;1.00
5901;DHT22;2976;49.764;9.796;2022-09-23T09:44:33;18.50;1.00
5901;DHT22;2976;49.764;9.796;2022-09-23T09:47:47;18.40;1.00
5901;DHT22;2976;49.764;9.796;2022-09-23T09:51:30;18.20;1.00
5901;DHT22;2976;49.764;9.796;2022-09-23T09:53:27;18.10;1.00
5901;DHT22;2976;49.764;9.796;2022-09-23T09:58:28;18.30;1.00
5901;DHT22;2976;49.764;9.796;2022-09-23T10:00:53;18.20;99.90
5901;DHT22;2976;49.764;9.796;2022-09-23T10:03:41;18.40;1.00
5901;DHT22;2976;49.764;9.796;2022-09-23T10:06:19;18.50;1.00
5901;DHT22;2976;49.764;9.796;2022-09-23T10:09:09;18.30;4.50
5901;DHT22;2976;49.764;9.796;2022-09-23T10:11:36;18.50;99.90
5901;DHT22;2976;49.764;9.796;2022-09-23T10:16:32;18.10;1.00
5901;DHT22;2976;49.764;9.796;2022-09-23T10:19:00;17.70;99.90
5901;DHT22;2976;49.764;9.796;2022-09-23T10:21:36;17.50;1.00
5901;DHT22;2976;49.764;9.796;2022-09-23T10:24:06;17.40;99.90
5901;DHT22;2976;49.764;9.796;2022-09-23T10:26:59;17.40;1.00
5901;DHT22;2976;49.764;9.796;2022-09-23T10:29:32;17.70;90.00
5901;DHT22;2976;49.764;9.796;2022-09-23T10:40:26;18.80;99.90
5901;DHT22;2976;49.764;9.796;2022-09-23T10:46:09;19.20;1.00
5901;DHT22;2976;49.764;9.796;2022-09-23T10:51:42;19.30;99.90
5901;DHT22;2976;49.764;9.796;2022-09-23T10:54:29;19.40;99.90
5901;DHT22;2976;49.764;9.796;2022-09-23T10:57:00;19.80;1.00
5901;DHT22;2976;49.764;9.796;2022-09-23T11:10:59;19.60;1.00
5901;DHT22;2976;49.764;9.796;2022-09-23T11:16:22;18.80;99.90
5901;DHT22;2976;49.764;9.796;2022-09-23T11:22:30;18.90;99.90
5901;DHT22;2976;49.764;9.796;2022-09-23T11:31:22;20.20;1.00
5901;DHT22;2976;49.764;9.796;2022-09-23T11:37:01;19.30;99.90
5901;DHT22;2976;49.764;9.796;2022-09-23T11:39:46;18.90;1.00
5901;DHT22;2976;49.764;9.796;2022-09-23T11:42:23;18.80;1.00
5901;DHT22;2976;49.764;9.796;2022-09-23T11:45:05;19.20;1.00
5901;DHT22;2976;49.764;9.796;2022-09-23T11:47:36;19.50;1.00
5901;DHT22;2976;49.764;9.796;2022-09-23T11:50:19;19.70;99.90
5901;DHT22;2976;49.764;9.796;2022-09-23T11:52:51;19.90;99.90
5901;DHT22;2976;49.764;9.796;2022-09-23T11:55:24;20.10;99.90
5901;DHT22;2976;49.764;9.796;2022-09-23T11:57:54;20.20;99.90
5901;DHT22;2976;49.764;9.796;2022-09-23T12:00:27;20.30;99.90
5901;DHT22;2976;49.764;9.796;2022-09-23T12:03:06;20.30;99.90
5901;DHT22;2976;49.764;9.796;2022-09-23T12:05:38;20.40;99.90
5901;DHT22;2976;49.764;9.796;2022-09-23T12:08:21;20.10;99.90
5901;DHT22;2976;49.764;9.796;2022-09-23T12:14:28;20.10;99.90
5901;DHT22;2976;49.764;9.796;2022-09-23T12:24:58;19.00;99.90
5901;DHT22;2976;49.764;9.796;2022-09-23T12:27:40;18.80;99.90
5901;DHT22;2976;49.764;9.796;2022-09-23T12:30:19;18.90;99.90
5901;DHT22;2976;49.764;9.796;2022-09-23T12:32:45;18.90;99.90
5901;DHT22;2976;49.764;9.796;2022-09-23T12:35:39;18.70;99.90
5901;DHT22;2976;49.764;9.796;2022-09-23T12:41:30;18.20;1.00
5901;DHT22;2976;49.764;9.796;2022-09-23T12:46:45;18.60;1.00
5901;DHT22;2976;49.764;9.796;2022-09-23T12:49:34;18.80;1.00
5901;DHT22;2976;49.764;9.796;2022-09-23T12:54:36;19.00;1.00
5901;DHT22;2976;49.764;9.796;2022-09-23T12:57:05;19.10;99.90
5901;DHT22;2976;49.764;9.796;2022-09-23T13:02:25;19.30;99.90
5901;DHT22;2976;49.764;9.796;2022-09-23T13:05:00;19.30;99.90
5901;DHT22;2976;49.764;9.796;2022-09-23T13:07:47;19.40;99.90
5901;DHT22;2976;49.764;9.796;2022-09-23T13:10:24;19.30;99.90
5901;DHT22;2976;49.764;9.796;2022-09-23T13:12:53;19.40;99.90
5901;DHT22;2976;49.764;9.796;2022-09-23T13:15:34;19.30;99.90
5901;DHT22;2976;49.764;9.796;2022-09-23T13:20:52;18.90;99.90
5901;DHT22;2976;49.764;9.796;2022-09-23T13:23:27;18.60;99.90
5901;DHT22;2976;49.764;9.796;2022-09-23T13:26:00;18.50;99.90
5901;DHT22;2976;49.764;9.796;2022-09-23T13:28:38;18.60;99.90
5901;DHT22;2976;49.764;9.796;2022-09-23T13:31:05;18.80;99.90
5901;DHT22;2976;49.764;9.796;2022-09-23T13:33:42;19.00;1.00
5901;DHT22;2976;49.764;9.796;2022-09-23T13:36:16;19.30;1.00
5901;DHT22;2976;49.764;9.796;2022-09-23T13:38:43;19.40;1.00
5901;DHT22;2976;49.764;9.796;2022-09-23T13:41:23;19.50;99.90
5901;DHT22;2976;49.764;9.796;2022-09-23T13:43:54;19.60;99.90
5901;DHT22;2976;49.764;9.796;2022-09-23T13:46:39;19.40;99.90
5901;DHT22;2976;49.764;9.796;2022-09-23T13:49:21;19.50;99.90
5901;DHT22;2976;49.764;9.796;2022-09-23T13:51:49;19.60;99.90
5901;DHT22;2976;49.764;9.796;2022-09-23T13:54:32;19.60;99.90
5901;DHT22;2976;49.764;9.796;2022-09-23T13:57:01;19.20;99.90
5901;DHT22;2976;49.764;9.796;2022-09-23T13:59:39;18.70;99.90
5901;DHT22;2976;49.764;9.796;2022-09-23T14:02:15;18.60;1.00
5901;DHT22;2976;49.764;9.796;2022-09-23T14:04:44;18.70;1.00
5901;DHT22;2976;49.764;9.796;2022-09-23T14:07:14;18.70;99.90
5901;DHT22;2976;49.764;9.796;2022-09-23T14:09:43;18.90;1.00
5901;DHT22;2976;49.764;9.796;2022-09-23T14:12:09;19.00;99.90
5901;DHT22;2976;49.764;9.796;2022-09-23T14:14:36;19.20;99.90
5901;DHT22;2976;49.764;9.796;2022-09-23T14:17:04;19.20;99.90
5901;DHT22;2976;49.764;9.796;2022-09-23T14:19:30;19.20;1.00
5901;DHT22;2976;49.764;9.796;2022-09-23T14:21:56;19.10;1.00
5901;DHT22;2976;49.764;9.796;2022-09-23T14:24:33;18.80;99.90
5901;DHT22;2976;49.764;9.796;2022-09-23T14:27:08;18.50;1.00
5901;DHT22;2976;49.764;9.796;2022-09-23T14:29:38;18.60;1.00
5901;DHT22;2976;49.764;9.796;2022-09-23T14:32:15;18.70;1.00
5901;DHT22;2976;49.764;9.796;2022-09-23T14:34:49;18.70;1.00
5901;DHT22;2976;49.764;9.796;2022-09-23T14:37:25;18.70;1.00
5901;DHT22;2976;49.764;9.796;2022-09-23T14:43:16;18.90;1.00
5901;DHT22;2976;49.764;9.796;2022-09-23T14:45:48;19.10;1.00
5901;DHT22;2976;49.764;9.796;2022-09-23T14:48:26;19.30;1.00
5901;DHT22;2976;49.764;9.796;2022-09-23T14:50:59;19.40;99.90
5901;DHT22;2976;49.764;9.796;2022-09-23T14:53:30;19.40;99.90
5901;DHT22;2976;49.764;9.796;2022-09-23T14:56:09;19.40;99.90
5901;DHT22;2976;49.764;9.796;2022-09-23T14:59:01;19.40;99.90
5901;DHT22;2976;49.764;9.796;2022-09-23T15:03:57;19.20;99.90
5901;DHT22;2976;49.764;9.796;2022-09-23T15:06:23;19.10;99.90
5901;DHT22;2976;49.764;9.796;2022-09-23T15:08:50;19.00;99.90
5901;DHT22;2976;49.764;9.796;2022-09-23T15:11:17;18.90;1.00
5901;DHT22;2976;49.764;9.796;2022-09-23T15:13:45;18.90;1.00
5901;DHT22;2976;49.764;9.796;2022-09-23T15:16:14;18.90;99.90
5901;DHT22;2976;49.764;9.796;2022-09-23T15:18:43;18.90;99.90
5901;DHT22;2976;49.764;9.796;2022-09-23T15:21:16;18.90;99.90
5901;DHT22;2976;49.764;9.796;2022-09-23T15:23:48;19.10;99.90
5901;DHT22;2976;49.764;9.796;2022-09-23T15:26:15;19.10;99.90
5901;DHT22;2976;49.764;9.796;2022-09-23T15:28:42;19.20;99.90
5901;DHT22;2976;49.764;9.796;2022-09-23T15:31:15;19.20;99.90
5901;DHT22;2976;49.764;9.796;2022-09-23T15:33:47;19.10;1.00
5901;DHT22;2976;49.764;9.796;2022-09-23T15:36:21;19.10;1.00
5901;DHT22;2976;49.764;9.796;2022-09-23T15:38:47;19.10;1.00
5901;DHT22;2976;49.764;9.796;2022-09-23T15:41:14;19.00;1.00
5901;DHT22;2976;49.764;9.796;2022-09-23T15:43:40;18.90;1.00
5901;DHT22;2976;49.764;9.796;2022-09-23T15:46:10;18.80;1.00
5901;DHT22;2976;49.764;9.796;2022-09-23T15:48:40;18.60;1.00
5901;DHT22;2976;49.764;9.796;2022-09-23T15:51:08;18.50;1.00
5901;DHT22;2976;49.764;9.796;2022-09-23T15:53:37;18.40;36.80
5901;DHT22;2976;49.764;9.796;2022-09-23T15:56:03;18.30;99.90
5901;DHT22;2976;49.764;9.796;2022-09-23T15:58:29;18.00;1.00
5901;DHT22;2976;49.764;9.796;2022-09-23T16:00:55;17.90;1.00
5901;DHT22;2976;49.764;9.796;2022-09-23T16:03:22;17.70;11.60
5901;DHT22;2976;49.764;9.796;2022-09-23T16:05:50;17.60;23.30
5901;DHT22;2976;49.764;9.796;2022-09-23T16:08:16;17.40;99.90
5901;DHT22;2976;49.764;9.796;2022-09-23T16:10:47;17.40;99.90
5901;DHT22;2976;49.764;9.796;2022-09-23T16:13:13;17.30;1.00
5901;DHT22;2976;49.764;9.796;2022-09-23T16:15:39;17.20;1.00
5901;DHT22;2976;49.764;9.796;2022-09-23T16:18:07;17.10;1.00
5901;DHT22;2976;49.764;9.796;2022-09-23T16:20:35;17.00;1.00
5901;DHT22;2976;49.764;9.796;2022-09-23T16:23:03;16.90;1.00
5901;DHT22;2976;49.764;9.796;2022-09-23T16:25:31;16.90;99.90
5901;DHT22;2976;49.764;9.796;2022-09-23T16:28:01;16.80;99.90
5901;DHT22;2976;49.764;9.796;2022-09-23T16:30:28;16.70;99.90
5901;DHT22;2976;49.764;9.796;2022-09-23T16:32:54;16.60;1.00
5901;DHT22;2976;49.764;9.796;2022-09-23T16:35:21;16.60;99.90
5901;DHT22;2976;49.764;9.796;2022-09-23T16:37:47;16.50;1.00
5901;DHT22;2976;49.764;9.796;2022-09-23T16:40:14;16.30;98.90
5901;DHT22;2976;49.764;9.796;2022-09-23T16:42:47;16.20;1.00
5901;DHT22;2976;49.764;9.796;2022-09-23T16:45:15;16.10;1.00
5901;DHT22;2976;49.764;9.796;2022-09-23T16:47:45;16.00;1.00
5901;DHT22;2976;49.764;9.796;2022-09-23T16:50:21;15.90;1.00
5901;DHT22;2976;49.764;9.796;2022-09-23T16:52:47;15.80;99.90
5901;DHT22;2976;49.764;9.796;2022-09-23T16:55:15;15.70;99.90
5901;DHT22;2976;49.764;9.796;2022-09-23T16:57:41;15.60;1.00
5901;DHT22;2976;49.764;9.796;2022-09-23T17:00:11;15.50;1.00
5901;DHT22;2976;49.764;9.796;2022-09-23T17:02:56;15.40;1.00
5901;DHT22;2976;49.764;9.796;2022-09-23T17:05:40;15.30;1.00
5901;DHT22;2976;49.764;9.796;2022-09-23T17:08:05;15.30;1.00
5901;DHT22;2976;49.764;9.796;2022-09-23T17:10:32;15.20;1.00
5901;DHT22;2976;49.764;9.796;2022-09-23T17:12:58;15.10;1.00
5901;DHT22;2976;49.764;9.796;2022-09-23T17:15:24;15.00;1.00
5901;DHT22;2976;49.764;9.796;2022-09-23T17:17:50;15.00;1.00
5901;DHT22;2976;49.764;9.796;2022-09-23T17:20:15;14.90;1.00
5901;DHT22;2976;49.764;9.796;2022-09-23T17:22:41;14.90;1.00
5901;DHT22;2976;49.764;9.796;2022-09-23T17:25:07;14.80;1.00
5901;DHT22;2976;49.764;9.796;2022-09-23T17:27:33;14.70;1.00
5901;DHT22;2976;49.764;9.796;2022-09-23T17:29:59;14.60;1.00
5901;DHT22;2976;49.764;9.796;2022-09-23T17:32:25;14.60;1.00
5901;DHT22;2976;49.764;9.796;2022-09-23T17:34:51;14.40;1.00
5901;DHT22;2976;49.764;9.796;2022-09-23T17:37:17;14.30;1.00
5901;DHT22;2976;49.764;9.796;2022-09-23T17:39:43;14.10;31.30
5901;DHT22;2976;49.764;9.796;2022-09-23T17:42:08;14.00;52.80
5901;DHT22;2976;49.764;9.796;2022-09-23T17:44:34;13.90;54.70
5901;DHT22;2976;49.764;9.796;2022-09-23T17:47:01;13.80;55.00
5901;DHT22;2976;49.764;9.796;2022-09-23T17:49:27;13.70;52.70
5901;DHT22;2976;49.764;9.796;2022-09-23T17:51:56;13.60;52.80
5901;DHT22;2976;49.764;9.796;2022-09-23T17:54:21;13.50;67.70
5901;DHT22;2976;49.764;9.796;2022-09-23T17:56:47;13.40;59.40
5901;DHT22;2976;49.764;9.796;2022-09-23T17:59:12;13.30;60.00
5901;DHT22;2976;49.764;9.796;2022-09-23T18:01:38;13.20;71.50
5901;DHT22;2976;49.764;9.796;2022-09-23T18:04:04;13.10;82.50
5901;DHT22;2976;49.764;9.796;2022-09-23T18:06:32;13.10;90.20
5901;DHT22;2976;49.764;9.796;2022-09-23T18:08:59;13.10;97.40
5901;DHT22;2976;49.764;9.796;2022-09-23T18:11:31;13.00;97.90
5901;DHT22;2976;49.764;9.796;2022-09-23T18:14:15;12.90;93.80
5901;DHT22;2976;49.764;9.796;2022-09-23T18:16:42;12.80;93.10
5901;DHT22;2976;49.764;9.796;2022-09-23T18:19:16;12.70;99.30
5901;DHT22;2976;49.764;9.796;2022-09-23T18:21:44;12.70;99.90
5901;DHT22;2976;49.764;9.796;2022-09-23T18:24:10;12.60;99.90
5901;DHT22;2976;49.764;9.796;2022-09-23T18:26:36;12.50;99.90
5901;DHT22;2976;49.764;9.796;2022-09-23T18:29:03;12.40;99.90
5901;DHT22;2976;49.764;9.796;2022-09-23T18:31:30;12.30;99.90
5901;DHT22;2976;49.764;9.796;2022-09-23T18:34:00;12.20;99.90
5901;DHT22;2976;49.764;9.796;2022-09-23T18:36:26;12.20;99.90